createdAt,value
2022-11-24T00:00:42.670Z,11.77
2022-11-24T00:03:28.654Z,11.78
2022-11-24T00:06:16.063Z,11.81
2022-11-24T00:09:03.641Z,11.83
2022-11-24T00:11:49.859Z,11.79
2022-11-24T00:14:36.327Z,11.79
2022-11-24T00:17:22.486Z,11.82
2022-11-24T00:20:09.196Z,11.73
2022-11-24T00:22:56.079Z,11.80
2022-11-24T00:25:42.113Z,11.84
2022-11-24T00:28:28.137Z,11.83
2022-11-24T00:31:22.922Z,11.86
2022-11-24T00:34:13.803Z,11.88
2022-11-24T00:37:00.019Z,11.87
2022-11-24T00:39:46.105Z,11.87
2022-11-24T00:42:32.160Z,11.85
2022-11-24T00:45:18.079Z,11.88
2022-11-24T00:48:04.153Z,11.87
2022-11-24T00:50:58.483Z,11.85
2022-11-24T00:53:45.277Z,11.88
2022-11-24T00:56:31.526Z,11.85
2022-11-24T00:59:17.387Z,11.86
2022-11-24T01:02:03.473Z,11.84
2022-11-24T01:04:49.439Z,11.71
2022-11-24T01:07:35.829Z,11.85
2022-11-24T01:10:21.679Z,11.84
2022-11-24T01:13:07.509Z,11.81
2022-11-24T01:15:53.537Z,11.85
2022-11-24T01:18:39.362Z,11.83
2022-11-24T01:21:25.312Z,11.82
2022-11-24T01:24:11.557Z,11.80
2022-11-24T01:26:57.577Z,11.76
2022-11-24T01:29:43.421Z,11.70
2022-11-24T01:32:29.423Z,11.78
2022-11-24T01:35:15.503Z,11.79
2022-11-24T01:38:01.383Z,11.77
2022-11-24T01:40:47.297Z,11.77
2022-11-24T01:43:33.754Z,11.75
2022-11-24T01:46:33.631Z,11.76
2022-11-24T01:49:39.864Z,11.72
2022-11-24T01:52:36.363Z,11.73
2022-11-24T01:55:28.779Z,11.63
2022-11-24T01:58:19.363Z,11.69
2022-11-24T02:01:05.555Z,11.59
2022-11-24T02:03:52.294Z,11.63
2022-11-24T02:06:40.091Z,11.65
2022-11-24T02:09:56.108Z,11.57
2022-11-24T02:12:44.421Z,11.61
2022-11-24T02:15:30.380Z,11.56
2022-11-24T02:18:16.652Z,11.54
2022-11-24T02:21:02.479Z,11.50
2022-11-24T02:23:51.075Z,11.44
2022-11-24T02:26:45.879Z,11.46
2022-11-24T02:29:31.876Z,11.44
2022-11-24T02:32:18.532Z,11.45
2022-11-24T02:35:06.240Z,11.44
2022-11-24T02:37:52.240Z,11.48
2022-11-24T02:40:38.131Z,11.46
2022-11-24T02:43:24.497Z,11.46
2022-11-24T02:46:10.948Z,11.44
2022-11-24T02:48:57.283Z,11.46
2022-11-24T02:51:43.454Z,11.44
2022-11-24T02:54:29.286Z,11.36
2022-11-24T02:57:15.420Z,11.39
2022-11-24T03:00:01.616Z,11.41
2022-11-24T03:02:47.635Z,11.45
2022-11-24T03:05:33.931Z,11.38
2022-11-24T03:08:19.831Z,11.34
2022-11-24T03:11:05.988Z,11.35
2022-11-24T03:13:52.651Z,11.42
2022-11-24T03:16:38.912Z,11.42
2022-11-24T03:19:24.692Z,11.40
2022-11-24T03:22:12.828Z,11.38
2022-11-24T03:24:59.358Z,11.36
2022-11-24T03:27:45.991Z,11.31
2022-11-24T03:30:32.045Z,11.35
2022-11-24T03:33:18.071Z,11.35
2022-11-24T03:36:05.259Z,11.28
2022-11-24T03:38:51.209Z,11.31
2022-11-24T03:41:37.292Z,11.29
2022-11-24T03:44:23.462Z,11.19
2022-11-24T03:47:11.051Z,11.19
2022-11-24T03:49:57.300Z,11.21
2022-11-24T03:52:43.639Z,11.21
2022-11-24T03:55:29.817Z,11.13
2022-11-24T03:58:16.037Z,11.16
2022-11-24T04:01:02.072Z,11.12
2022-11-24T04:03:47.987Z,11.07
2022-11-24T04:06:34.144Z,11.04
2022-11-24T04:09:20.091Z,11.07
2022-11-24T04:12:24.975Z,11.05
2022-11-24T04:15:16.025Z,11.02
2022-11-24T04:18:01.954Z,11.00
2022-11-24T04:20:52.711Z,10.96
2022-11-24T04:23:38.835Z,10.95
2022-11-24T04:26:24.873Z,10.90
2022-11-24T04:29:11.024Z,10.78
2022-11-24T04:31:57.310Z,10.87
2022-11-24T04:34:43.755Z,10.88
2022-11-24T04:37:29.853Z,10.84
2022-11-24T04:40:16.249Z,10.82
2022-11-24T04:43:02.288Z,10.85
2022-11-24T04:45:48.077Z,10.77
2022-11-24T04:48:34.001Z,10.80
2022-11-24T04:51:19.907Z,10.85
2022-11-24T04:54:07.546Z,10.82
2022-11-24T04:56:53.522Z,10.83
2022-11-24T04:59:39.339Z,10.73
2022-11-24T05:02:25.155Z,10.75
2022-11-24T05:05:11.224Z,10.77
2022-11-24T05:07:59.943Z,10.76
2022-11-24T05:10:46.046Z,10.75
2022-11-24T05:13:31.846Z,10.77
2022-11-24T05:16:17.742Z,10.77
2022-11-24T05:19:03.830Z,10.77
2022-11-24T05:21:49.930Z,10.71
2022-11-24T05:24:36.004Z,10.76
2022-11-24T05:27:22.402Z,10.84
2022-11-24T05:30:08.859Z,10.79
2022-11-24T05:32:55.199Z,10.75
2022-11-24T05:35:41.332Z,10.74
2022-11-24T05:38:27.203Z,10.71
2022-11-24T05:41:13.087Z,10.54
2022-11-24T05:43:59.193Z,10.57
2022-11-24T05:46:45.172Z,10.64
2022-11-24T05:49:30.932Z,10.65
2022-11-24T05:52:16.942Z,10.67
2022-11-24T05:55:03.763Z,10.64
2022-11-24T05:57:49.667Z,10.70
2022-11-24T06:00:36.750Z,10.62
2022-11-24T06:03:23.702Z,10.63
2022-11-24T06:06:10.896Z,10.57
2022-11-24T06:08:56.729Z,10.55
2022-11-24T06:11:43.338Z,10.54
2022-11-24T06:14:29.529Z,10.43
2022-11-24T06:17:15.342Z,10.56
2022-11-24T06:20:01.384Z,10.50
2022-11-24T06:22:48.318Z,10.49
2022-11-24T06:25:34.215Z,10.50
2022-11-24T06:35:26.477Z,9.70
2022-11-24T06:38:12.558Z,9.79
2022-11-24T06:41:00.003Z,9.88
2022-11-24T06:43:46.329Z,10.03
2022-11-24T06:46:32.904Z,10.13
2022-11-24T06:49:19.234Z,10.22
2022-11-24T06:52:05.146Z,10.23
2022-11-24T06:54:50.976Z,10.37
2022-11-24T06:57:36.862Z,10.40
2022-11-24T07:00:22.919Z,10.43
2022-11-24T07:03:15.380Z,10.42
2022-11-24T07:06:01.386Z,10.33
2022-11-24T07:08:47.290Z,10.41
2022-11-24T07:11:33.462Z,10.51
2022-11-24T07:14:19.491Z,10.52
2022-11-24T07:17:05.464Z,10.50
2022-11-24T07:19:51.320Z,10.55
2022-11-24T07:22:37.143Z,10.54
2022-11-24T07:25:26.580Z,10.51
2022-11-24T07:28:12.825Z,10.56
2022-11-24T07:30:59.038Z,10.51
2022-11-24T07:33:52.605Z,10.57
2022-11-24T07:36:38.466Z,10.52
2022-11-24T07:39:24.354Z,10.44
2022-11-24T07:42:11.454Z,10.42
2022-11-24T07:44:57.393Z,10.40
2022-11-24T07:47:43.291Z,10.39
2022-11-24T07:50:29.245Z,10.34
2022-11-24T07:53:15.371Z,10.34
2022-11-24T07:56:02.909Z,10.41
2022-11-24T07:58:52.851Z,10.32
2022-11-24T08:01:39.370Z,10.37
2022-11-24T08:04:25.511Z,10.43
2022-11-24T08:07:11.349Z,10.46
2022-11-24T08:09:57.092Z,10.45
2022-11-24T08:12:44.057Z,10.54
2022-11-24T08:15:30.048Z,10.51
2022-11-24T08:18:15.938Z,10.54
2022-11-24T08:21:02.362Z,10.45
2022-11-24T08:23:48.081Z,10.61
2022-11-24T08:26:34.120Z,10.56
2022-11-24T08:29:20.088Z,10.65
2022-11-24T08:32:06.070Z,10.48
2022-11-24T08:34:56.343Z,10.68
2022-11-24T08:37:45.814Z,10.47
2022-11-24T08:40:32.326Z,10.60
2022-11-24T08:43:18.599Z,10.69
2022-11-24T08:46:10.534Z,10.74
2022-11-24T08:48:56.610Z,10.76
2022-11-24T08:51:43.460Z,10.86
2022-11-24T08:54:29.576Z,10.81
2022-11-24T08:57:21.460Z,10.89
2022-11-24T09:00:09.709Z,10.89
2022-11-24T09:02:59.059Z,10.99
2022-11-24T09:05:53.057Z,10.98
2022-11-24T09:08:40.035Z,11.09
2022-11-24T09:11:27.135Z,11.10
2022-11-24T09:14:13.293Z,11.12
2022-11-24T09:16:59.642Z,11.18
2022-11-24T09:19:45.661Z,11.14
2022-11-24T09:22:31.930Z,11.20
2022-11-24T09:25:17.862Z,11.23
2022-11-24T09:28:04.351Z,11.26
2022-11-24T09:30:51.068Z,11.34
2022-11-24T09:33:37.557Z,11.39
2022-11-24T09:36:23.996Z,11.35
2022-11-24T09:39:10.910Z,11.52
2022-11-24T09:42:12.960Z,11.49
2022-11-24T09:45:56.974Z,11.48
2022-11-24T09:48:40.027Z,11.48
2022-11-24T09:51:29.405Z,11.53
2022-11-24T09:54:19.824Z,11.48
2022-11-24T09:57:07.178Z,11.49
2022-11-24T09:59:55.820Z,11.52
2022-11-24T10:02:41.654Z,11.48
2022-11-24T10:05:29.460Z,11.54
2022-11-24T10:08:21.403Z,11.53
2022-11-24T10:11:14.043Z,11.47
2022-11-24T10:14:21.533Z,11.57
2022-11-24T10:17:07.630Z,11.71
2022-11-24T10:20:09.632Z,11.70
2022-11-24T10:23:18.717Z,11.73
2022-11-24T10:26:09.073Z,11.68
2022-11-24T10:28:56.477Z,11.83
2022-11-24T10:31:43.815Z,11.79
2022-11-24T10:34:34.601Z,11.94
2022-11-24T10:37:28.835Z,12.04
2022-11-24T10:41:05.451Z,11.93
2022-11-24T10:43:52.194Z,12.09
2022-11-24T10:46:39.606Z,12.19
2022-11-24T10:49:29.300Z,12.17
2022-11-24T10:52:16.558Z,12.09
2022-11-24T10:55:04.693Z,12.12
2022-11-24T10:57:50.689Z,12.11
2022-11-24T11:00:36.886Z,12.09
2022-11-24T11:03:33.273Z,12.15
2022-11-24T11:06:24.840Z,12.05
2022-11-24T11:09:16.846Z,12.17
2022-11-24T11:12:42.212Z,12.08
2022-11-24T11:15:25.996Z,12.13
2022-11-24T11:18:14.961Z,12.10
2022-11-24T11:21:02.295Z,12.11
2022-11-24T11:23:51.612Z,12.08
2022-11-24T11:26:38.461Z,12.11
2022-11-24T11:35:39.256Z,11.97
2022-11-24T11:38:26.591Z,11.99
2022-11-24T11:41:34.818Z,12.04
2022-11-24T11:44:44.336Z,12.06
2022-11-24T11:47:31.528Z,12.14
2022-11-24T11:50:23.841Z,12.11
2022-11-24T11:53:11.704Z,12.05
2022-11-24T11:56:04.113Z,12.15
2022-11-24T11:59:22.268Z,12.14
2022-11-24T12:02:17.379Z,12.13
2022-11-24T12:05:22.539Z,12.13
2022-11-24T12:08:23.840Z,12.08
2022-11-24T12:11:26.446Z,12.17
2022-11-24T12:14:24.673Z,12.22
2022-11-24T12:17:32.510Z,11.99
2022-11-24T12:21:00.078Z,12.12
2022-11-24T12:24:06.110Z,12.01
2022-11-24T12:27:20.937Z,12.01
2022-11-24T12:30:13.517Z,12.05
2022-11-24T12:33:00.335Z,12.02
2022-11-24T12:35:49.294Z,12.03
2022-11-24T12:38:50.521Z,11.96
2022-11-24T12:41:58.417Z,11.94
2022-11-24T12:45:09.259Z,11.92
2022-11-24T12:48:06.389Z,11.84
2022-11-24T12:50:53.932Z,11.97
2022-11-24T12:53:40.377Z,11.92
2022-11-24T12:56:31.919Z,11.86
2022-11-24T12:59:24.082Z,11.95
2022-11-24T13:02:39.967Z,11.92
2022-11-24T13:05:33.294Z,11.83
2022-11-24T13:08:19.873Z,11.97
2022-11-24T13:11:21.292Z,11.96
2022-11-24T13:14:15.323Z,11.97
2022-11-24T13:17:28.817Z,12.01
2022-11-24T13:20:18.938Z,11.97
2022-11-24T13:23:07.628Z,11.95
2022-11-24T13:26:27.272Z,11.88
2022-11-24T13:29:28.878Z,11.85
2022-11-24T13:32:15.148Z,11.88
2022-11-24T13:35:13.500Z,11.81
2022-11-24T13:37:59.548Z,11.80
2022-11-24T13:41:06.218Z,11.78
2022-11-24T13:44:15.010Z,11.73
2022-11-24T13:47:05.580Z,11.77
2022-11-24T13:49:52.621Z,11.64
2022-11-24T13:53:06.339Z,11.54
2022-11-24T13:55:59.962Z,11.57
2022-11-24T13:58:51.337Z,11.53
2022-11-24T14:01:40.852Z,11.46
2022-11-24T14:07:34.719Z,11.41
2022-11-24T14:10:36.250Z,11.37
2022-11-24T14:13:25.369Z,11.36
2022-11-24T14:16:17.674Z,11.41
2022-11-24T14:19:10.064Z,11.32
2022-11-24T14:21:56.264Z,11.37
2022-11-24T14:24:45.364Z,11.39
2022-11-24T14:27:34.180Z,11.36
2022-11-24T14:30:22.693Z,11.34
2022-11-24T14:33:16.036Z,11.32
2022-11-24T14:36:02.220Z,11.35
2022-11-24T14:38:48.291Z,11.36
2022-11-24T14:41:34.353Z,11.33
2022-11-24T14:44:27.154Z,11.34
2022-11-24T14:47:15.141Z,11.20
2022-11-24T14:50:12.885Z,11.27
2022-11-24T14:52:59.279Z,11.24
2022-11-24T14:55:45.649Z,11.33
2022-11-24T14:58:36.510Z,11.33
2022-11-24T15:01:28.241Z,11.31
2022-11-24T15:07:32.450Z,11.27
2022-11-24T15:10:33.964Z,11.20
2022-11-24T15:13:23.204Z,11.20
2022-11-24T15:16:16.364Z,11.28
2022-11-24T15:19:03.085Z,11.26
2022-11-24T15:21:49.125Z,11.21
2022-11-24T15:24:49.321Z,11.21
2022-11-24T15:27:35.604Z,11.23
2022-11-24T15:30:21.443Z,11.27
2022-11-24T15:33:17.165Z,11.16
2022-11-24T15:36:03.444Z,11.25
2022-11-24T15:38:49.624Z,11.25
2022-11-24T15:41:35.718Z,11.25
2022-11-24T15:44:21.925Z,11.13
2022-11-24T15:47:08.702Z,11.24
2022-11-24T15:49:54.910Z,11.20
2022-11-24T15:52:41.770Z,11.20
2022-11-24T15:55:28.088Z,11.20
2022-11-24T15:58:14.602Z,11.21
2022-11-24T16:01:00.861Z,11.21
2022-11-24T16:03:48.187Z,11.19
2022-11-24T16:06:35.301Z,11.21
2022-11-24T16:09:21.348Z,11.13
2022-11-24T16:12:10.577Z,11.19
2022-11-24T16:14:56.905Z,11.19
2022-11-24T16:17:42.679Z,11.20
2022-11-24T16:20:28.580Z,11.19
2022-11-24T16:23:14.526Z,11.16
2022-11-24T16:26:00.400Z,11.20
2022-11-24T16:28:46.497Z,11.20
2022-11-24T16:31:32.964Z,11.19
2022-11-24T16:34:19.107Z,11.13
2022-11-24T16:37:05.024Z,11.08
2022-11-24T16:39:51.252Z,11.06
2022-11-24T16:42:37.253Z,11.11
2022-11-24T16:45:23.217Z,11.15
2022-11-24T16:48:09.103Z,11.05
2022-11-24T16:50:55.031Z,11.14
2022-11-24T16:53:41.181Z,11.06
2022-11-24T16:56:28.633Z,11.13
2022-11-24T16:59:14.819Z,11.09
2022-11-24T17:02:01.302Z,11.13
2022-11-24T17:04:47.214Z,11.03
2022-11-24T17:07:33.501Z,11.07
2022-11-24T17:10:19.720Z,11.11
2022-11-24T17:13:05.944Z,11.06
2022-11-24T17:15:54.326Z,11.06
2022-11-24T17:18:40.864Z,11.04
2022-11-24T17:21:27.793Z,11.00
2022-11-24T17:24:17.662Z,10.99
2022-11-24T17:27:03.654Z,11.00
2022-11-24T17:29:49.625Z,10.90
2022-11-24T17:32:35.754Z,10.87
2022-11-24T17:35:21.694Z,10.87
2022-11-24T17:38:07.468Z,10.74
2022-11-24T17:40:53.504Z,10.80
2022-11-24T17:43:39.647Z,10.68
2022-11-24T17:46:27.105Z,10.72
2022-11-24T17:49:13.317Z,10.74
2022-11-24T17:51:59.296Z,10.74
2022-11-24T17:54:46.759Z,10.73
2022-11-24T17:57:32.924Z,10.66
2022-11-24T18:00:19.081Z,10.52
2022-11-24T18:03:05.769Z,10.63
2022-11-24T18:05:51.748Z,10.61
2022-11-24T18:08:38.798Z,10.52
2022-11-24T18:11:31.368Z,10.57
2022-11-24T18:14:18.215Z,10.46
2022-11-24T18:17:04.470Z,10.39
2022-11-24T18:19:50.658Z,10.41
2022-11-24T18:23:04.055Z,10.42
2022-11-24T18:25:42.871Z,10.37
2022-11-24T18:28:29.036Z,10.40
2022-11-24T18:31:16.501Z,10.38
2022-11-24T18:34:04.283Z,10.36
2022-11-24T18:36:52.608Z,10.33
2022-11-24T18:39:42.136Z,10.27
2022-11-24T18:42:29.114Z,10.22
2022-11-24T18:45:15.131Z,10.21
2022-11-24T18:48:01.044Z,10.16
2022-11-24T18:50:54.673Z,10.13
2022-11-24T18:53:42.699Z,10.08
2022-11-24T18:56:29.479Z,10.06
2022-11-24T18:59:15.515Z,10.07
2022-11-24T19:02:01.384Z,10.03
2022-11-24T19:04:47.485Z,10.04
2022-11-24T19:07:33.785Z,9.95
2022-11-24T19:10:19.608Z,9.94
2022-11-24T19:13:05.689Z,10.00
2022-11-24T19:15:52.047Z,9.98
2022-11-24T19:18:38.133Z,9.93
2022-11-24T19:21:24.029Z,9.80
2022-11-24T19:24:10.451Z,9.98
2022-11-24T19:26:56.735Z,9.98
2022-11-24T19:29:43.293Z,9.92
2022-11-24T19:32:31.437Z,9.93
2022-11-24T19:35:17.586Z,9.93
2022-11-24T19:38:03.832Z,9.90
2022-11-24T19:40:49.582Z,9.91
2022-11-24T19:43:35.885Z,9.84
2022-11-24T19:46:23.040Z,9.89
2022-11-24T19:49:09.148Z,9.77
2022-11-24T19:51:55.202Z,9.79
2022-11-24T19:54:41.618Z,9.83
2022-11-24T19:57:28.135Z,9.85
2022-11-24T20:00:15.277Z,9.80
2022-11-24T20:03:01.645Z,9.78
2022-11-24T20:05:57.240Z,9.75
2022-11-24T20:08:43.618Z,9.80
2022-11-24T20:11:30.229Z,9.81
2022-11-24T20:14:18.934Z,9.79
2022-11-24T20:17:06.769Z,9.80
2022-11-24T20:19:52.685Z,9.73
2022-11-24T20:22:38.617Z,9.78
2022-11-24T20:25:25.164Z,9.76
2022-11-24T20:28:11.712Z,9.78
2022-11-24T20:31:01.927Z,9.74
2022-11-24T20:33:49.386Z,9.78
2022-11-24T20:36:37.668Z,9.67
2022-11-24T20:39:26.457Z,9.75
2022-11-24T20:42:12.533Z,9.66
2022-11-24T20:45:00.879Z,9.74
2022-11-24T20:47:46.799Z,9.75
2022-11-24T20:50:36.983Z,9.52
2022-11-24T20:53:23.009Z,9.69
2022-11-24T20:56:29.013Z,9.69
2022-11-24T20:59:24.382Z,9.74
2022-11-24T21:02:11.364Z,9.77
2022-11-24T21:04:57.493Z,9.77
2022-11-24T21:07:43.564Z,9.75
2022-11-24T21:10:29.641Z,9.75
2022-11-24T21:13:15.765Z,9.75
2022-11-24T21:16:11.610Z,9.73
2022-11-24T21:18:59.981Z,9.77
2022-11-24T21:21:47.700Z,9.74
2022-11-24T21:24:34.883Z,9.77
2022-11-24T21:27:21.366Z,9.77
2022-11-24T21:30:09.680Z,9.78
2022-11-24T21:32:56.222Z,9.73
2022-11-24T21:35:42.533Z,9.78
2022-11-24T21:38:28.767Z,9.78
2022-11-24T21:41:14.722Z,9.79
2022-11-24T21:44:00.890Z,9.75
2022-11-24T21:46:52.599Z,9.66
2022-11-24T21:49:40.090Z,9.71
2022-11-24T21:52:26.221Z,9.71
2022-11-24T21:55:12.106Z,9.70
2022-11-24T21:57:58.288Z,9.72
2022-11-24T22:00:44.263Z,9.70
2022-11-24T22:03:30.096Z,9.60
2022-11-24T22:06:17.868Z,9.73
2022-11-24T22:09:03.729Z,9.68
2022-11-24T22:11:49.910Z,9.74
2022-11-24T22:14:40.164Z,9.28
2022-11-24T22:17:30.557Z,9.46
2022-11-24T22:20:16.858Z,9.53
2022-11-24T22:23:02.762Z,9.53
2022-11-24T22:25:48.815Z,9.48
2022-11-24T22:28:36.001Z,9.45
2022-11-24T22:31:27.172Z,9.59
2022-11-24T22:34:13.233Z,9.56
2022-11-24T22:36:59.085Z,9.57
2022-11-24T22:39:44.979Z,9.62
2022-11-24T22:42:30.882Z,9.49
2022-11-24T22:45:17.000Z,9.60
2022-11-24T22:48:02.787Z,9.63
2022-11-24T22:50:48.757Z,9.66
2022-11-24T22:53:34.585Z,9.63
2022-11-24T22:56:22.667Z,9.64
2022-11-24T22:59:08.931Z,9.67
2022-11-24T23:01:54.793Z,9.66
2022-11-24T23:04:40.579Z,9.72
2022-11-24T23:07:26.664Z,9.61
2022-11-24T23:10:12.683Z,9.66
2022-11-24T23:12:58.871Z,9.71
2022-11-24T23:15:44.787Z,9.65
2022-11-24T23:18:31.460Z,9.74
2022-11-24T23:21:23.144Z,9.73
2022-11-24T23:24:10.498Z,9.77
2022-11-24T23:26:56.464Z,9.74
2022-11-24T23:29:42.189Z,9.67
2022-11-24T23:32:28.281Z,9.81
2022-11-24T23:35:14.298Z,9.80
2022-11-24T23:38:07.502Z,9.67
2022-11-24T23:40:58.537Z,9.71
2022-11-24T23:43:44.876Z,9.83
2022-11-24T23:46:31.157Z,9.72
2022-11-24T23:49:16.957Z,9.79
2022-11-24T23:52:02.898Z,9.75
2022-11-24T23:54:48.751Z,9.79
2022-11-24T23:57:34.608Z,9.83
